sensor_id;sensor_type;location;lat;lon;timestamp;pressure;altitude;pressure_sealevel;temperature;humidity
69351;BME280;57106;51.446;-2.606;2023-04-08T00:01:32;102246.74;;;8.80;60.68
69351;BME280;57106;51.446;-2.606;2023-04-08T00:03:56;102247.34;;;8.68;60.81
69351;BME280;57106;51.446;-2.606;2023-04-08T00:06:22;102250.16;;;8.79;60.57
69351;BME280;57106;51.446;-2.606;2023-04-08T00:08:47;102249.03;;;8.66;60.40
69351;BME280;57106;51.446;-2.606;2023-04-08T00:11:12;102250.07;;;8.80;59.27
69351;BME280;57106;51.446;-2.606;2023-04-08T00:13:37;102245.34;;;8.46;60.33
69351;BME280;57106;51.446;-2.606;2023-04-08T00:16:03;102245.75;;;8.37;60.80
69351;BME280;57106;51.446;-2.606;2023-04-08T00:18:28;102247.84;;;8.31;60.84
69351;BME280;57106;51.446;-2.606;2023-04-08T00:20:53;102242.96;;;8.24;61.49
69351;BME280;57106;51.446;-2.606;2023-04-08T00:23:19;102244.26;;;8.33;60.87
69351;BME280;57106;51.446;-2.606;2023-04-08T00:25:46;102240.41;;;8.18;61.34
69351;BME280;57106;51.446;-2.606;2023-04-08T00:28:11;102237.95;;;8.12;61.81
69351;BME280;57106;51.446;-2.606;2023-04-08T00:30:35;102240.91;;;7.97;62.22
69351;BME280;57106;51.446;-2.606;2023-04-08T00:33:01;102241.38;;;8.09;62.04
69351;BME280;57106;51.446;-2.606;2023-04-08T00:35:31;102240.05;;;8.06;61.85
69351;BME280;57106;51.446;-2.606;2023-04-08T00:37:52;102241.05;;;8.04;62.06
69351;BME280;57106;51.446;-2.606;2023-04-08T00:40:17;102240.20;;;8.08;62.11
69351;BME280;57106;51.446;-2.606;2023-04-08T00:42:43;102245.74;;;8.17;61.83
69351;BME280;57106;51.446;-2.606;2023-04-08T00:45:10;102244.29;;;8.05;62.71
69351;BME280;57106;51.446;-2.606;2023-04-08T00:47:38;102242.21;;;8.10;62.53
69351;BME280;57106;51.446;-2.606;2023-04-08T00:50:00;102246.19;;;8.05;62.43
69351;BME280;57106;51.446;-2.606;2023-04-08T00:52:25;102247.15;;;8.08;62.54
69351;BME280;57106;51.446;-2.606;2023-04-08T00:54:51;102251.00;;;7.92;63.08
69351;BME280;57106;51.446;-2.606;2023-04-08T00:57:16;102248.93;;;7.87;63.05
69351;BME280;57106;51.446;-2.606;2023-04-08T00:59:42;102250.62;;;7.92;63.21
69351;BME280;57106;51.446;-2.606;2023-04-08T01:02:14;102251.40;;;7.79;63.70
69351;BME280;57106;51.446;-2.606;2023-04-08T01:04:41;102257.89;;;7.80;63.48
69351;BME280;57106;51.446;-2.606;2023-04-08T01:07:05;102258.54;;;7.85;63.24
69351;BME280;57106;51.446;-2.606;2023-04-08T01:09:29;102259.53;;;7.82;63.38
69351;BME280;57106;51.446;-2.606;2023-04-08T01:11:51;102265.87;;;7.71;63.86
69351;BME280;57106;51.446;-2.606;2023-04-08T01:14:24;102261.47;;;7.68;63.92
69351;BME280;57106;51.446;-2.606;2023-04-08T01:16:41;102264.02;;;7.60;64.03
69351;BME280;57106;51.446;-2.606;2023-04-08T01:19:08;102266.83;;;7.78;63.48
69351;BME280;57106;51.446;-2.606;2023-04-08T01:21:32;102269.29;;;7.66;64.01
69351;BME280;57106;51.446;-2.606;2023-04-08T01:24:03;102267.80;;;7.55;64.34
69351;BME280;57106;51.446;-2.606;2023-04-08T01:26:25;102272.03;;;7.66;63.80
69351;BME280;57106;51.446;-2.606;2023-04-08T01:28:48;102272.58;;;7.47;64.52
69351;BME280;57106;51.446;-2.606;2023-04-08T01:31:14;102274.10;;;7.48;64.51
69351;BME280;57106;51.446;-2.606;2023-04-08T01:33:40;102275.26;;;7.60;64.36
69351;BME280;57106;51.446;-2.606;2023-04-08T01:36:05;102273.67;;;7.41;64.82
69351;BME280;57106;51.446;-2.606;2023-04-08T01:38:31;102276.32;;;7.53;64.64
69351;BME280;57106;51.446;-2.606;2023-04-08T01:40:56;102276.22;;;7.61;64.48
69351;BME280;57106;51.446;-2.606;2023-04-08T01:43:23;102274.25;;;7.56;65.32
69351;BME280;57106;51.446;-2.606;2023-04-08T01:45:48;102274.06;;;7.44;65.85
69351;BME280;57106;51.446;-2.606;2023-04-08T01:48:14;102274.89;;;7.55;65.76
69351;BME280;57106;51.446;-2.606;2023-04-08T01:50:39;102277.63;;;7.52;65.33
69351;BME280;57106;51.446;-2.606;2023-04-08T01:53:06;102275.89;;;7.57;65.13
69351;BME280;57106;51.446;-2.606;2023-04-08T01:55:31;102281.45;;;7.62;64.34
69351;BME280;57106;51.446;-2.606;2023-04-08T01:57:58;102280.78;;;7.45;64.99
69351;BME280;57106;51.446;-2.606;2023-04-08T02:00:23;102275.11;;;7.53;65.00
69351;BME280;57106;51.446;-2.606;2023-04-08T02:02:46;102272.65;;;7.43;65.43
69351;BME280;57106;51.446;-2.606;2023-04-08T02:05:12;102273.24;;;7.43;65.28
69351;BME280;57106;51.446;-2.606;2023-04-08T02:07:37;102273.85;;;7.25;65.74
69351;BME280;57106;51.446;-2.606;2023-04-08T02:10:07;102276.33;;;7.32;65.30
69351;BME280;57106;51.446;-2.606;2023-04-08T02:12:28;102282.10;;;7.19;65.83
69351;BME280;57106;51.446;-2.606;2023-04-08T02:14:54;102278.46;;;7.22;65.68
69351;BME280;57106;51.446;-2.606;2023-04-08T02:17:30;102283.67;;;7.02;66.28
69351;BME280;57106;51.446;-2.606;2023-04-08T02:19:47;102288.53;;;7.06;65.93
69351;BME280;57106;51.446;-2.606;2023-04-08T02:22:17;102288.89;;;7.11;65.55
69351;BME280;57106;51.446;-2.606;2023-04-08T02:24:38;102285.90;;;6.93;66.20
69351;BME280;57106;51.446;-2.606;2023-04-08T02:27:03;102283.16;;;6.88;66.85
69351;BME280;57106;51.446;-2.606;2023-04-08T02:29:29;102290.18;;;6.98;66.20
69351;BME280;57106;51.446;-2.606;2023-04-08T02:31:53;102293.78;;;6.90;66.52
69351;BME280;57106;51.446;-2.606;2023-04-08T02:34:19;102294.44;;;6.79;66.81
69351;BME280;57106;51.446;-2.606;2023-04-08T02:36:44;102293.53;;;6.80;66.55
69351;BME280;57106;51.446;-2.606;2023-04-08T02:39:11;102296.11;;;6.84;66.44
69351;BME280;57106;51.446;-2.606;2023-04-08T02:41:41;102290.17;;;6.46;67.58
69351;BME280;57106;51.446;-2.606;2023-04-08T02:44:02;102293.81;;;6.54;67.86
69351;BME280;57106;51.446;-2.606;2023-04-08T02:46:27;102298.75;;;6.56;67.94
69351;BME280;57106;51.446;-2.606;2023-04-08T02:48:53;102302.58;;;6.67;67.93
69351;BME280;57106;51.446;-2.606;2023-04-08T02:51:19;102305.21;;;6.83;67.20
69351;BME280;57106;51.446;-2.606;2023-04-08T02:53:44;102303.74;;;6.77;67.74
69351;BME280;57106;51.446;-2.606;2023-04-08T02:56:11;102303.02;;;6.78;67.94
69351;BME280;57106;51.446;-2.606;2023-04-08T02:58:35;102305.40;;;6.48;69.13
69351;BME280;57106;51.446;-2.606;2023-04-08T03:01:03;102307.23;;;6.78;67.96
69351;BME280;57106;51.446;-2.606;2023-04-08T03:03:27;102307.51;;;6.74;67.91
69351;BME280;57106;51.446;-2.606;2023-04-08T03:05:52;102312.60;;;6.71;68.27
69351;BME280;57106;51.446;-2.606;2023-04-08T03:08:18;102314.16;;;6.58;68.99
69351;BME280;57106;51.446;-2.606;2023-04-08T03:10:44;102310.13;;;6.68;68.80
69351;BME280;57106;51.446;-2.606;2023-04-08T03:13:10;102313.40;;;6.82;68.43
69351;BME280;57106;51.446;-2.606;2023-04-08T03:15:35;102311.40;;;6.71;69.07
69351;BME280;57106;51.446;-2.606;2023-04-08T03:18:05;102315.04;;;6.78;68.71
69351;BME280;57106;51.446;-2.606;2023-04-08T03:20:26;102315.44;;;6.85;68.29
69351;BME280;57106;51.446;-2.606;2023-04-08T03:22:52;102314.66;;;6.85;68.10
69351;BME280;57106;51.446;-2.606;2023-04-08T03:25:17;102314.36;;;6.84;67.80
69351;BME280;57106;51.446;-2.606;2023-04-08T03:27:43;102315.34;;;6.57;68.18
69351;BME280;57106;51.446;-2.606;2023-04-08T03:30:14;102317.15;;;6.60;67.70
69351;BME280;57106;51.446;-2.606;2023-04-08T03:32:35;102316.51;;;6.64;67.45
69351;BME280;57106;51.446;-2.606;2023-04-08T03:35:00;102315.54;;;6.51;67.97
69351;BME280;57106;51.446;-2.606;2023-04-08T03:37:26;102315.37;;;6.63;67.38
69351;BME280;57106;51.446;-2.606;2023-04-08T03:39:52;102318.22;;;6.66;67.17
69351;BME280;57106;51.446;-2.606;2023-04-08T03:42:17;102321.00;;;6.75;66.62
69351;BME280;57106;51.446;-2.606;2023-04-08T03:44:43;102319.85;;;6.59;66.02
69351;BME280;57106;51.446;-2.606;2023-04-08T03:47:09;102317.11;;;6.45;67.48
69351;BME280;57106;51.446;-2.606;2023-04-08T03:49:34;102324.44;;;6.41;67.18
69351;BME280;57106;51.446;-2.606;2023-04-08T03:52:00;102321.43;;;6.35;67.77
69351;BME280;57106;51.446;-2.606;2023-04-08T03:54:26;102318.04;;;6.39;67.94
69351;BME280;57106;51.446;-2.606;2023-04-08T03:56:52;102324.22;;;6.44;67.51
69351;BME280;57106;51.446;-2.606;2023-04-08T03:59:17;102320.68;;;6.31;67.86
69351;BME280;57106;51.446;-2.606;2023-04-08T04:01:43;102325.34;;;6.32;67.95
69351;BME280;57106;51.446;-2.606;2023-04-08T04:04:09;102325.32;;;6.32;67.99
69351;BME280;57106;51.446;-2.606;2023-04-08T04:06:35;102327.41;;;6.40;67.52
69351;BME280;57106;51.446;-2.606;2023-04-08T04:09:00;102328.02;;;6.13;67.89
69351;BME280;57106;51.446;-2.606;2023-04-08T04:11:26;102334.64;;;6.18;67.69
69351;BME280;57106;51.446;-2.606;2023-04-08T04:13:52;102337.62;;;6.26;67.63
69351;BME280;57106;51.446;-2.606;2023-04-08T04:16:18;102336.29;;;6.23;67.90
69351;BME280;57106;51.446;-2.606;2023-04-08T04:18:43;102339.72;;;6.18;68.18
69351;BME280;57106;51.446;-2.606;2023-04-08T04:21:09;102347.89;;;5.99;68.32
69351;BME280;57106;51.446;-2.606;2023-04-08T04:23:34;102351.72;;;5.86;68.80
69351;BME280;57106;51.446;-2.606;2023-04-08T04:26:00;102351.50;;;5.81;68.63
69351;BME280;57106;51.446;-2.606;2023-04-08T04:28:26;102355.42;;;5.86;69.15
69351;BME280;57106;51.446;-2.606;2023-04-08T04:30:51;102360.70;;;5.90;69.84
69351;BME280;57106;51.446;-2.606;2023-04-08T04:33:17;102361.15;;;5.76;70.57
69351;BME280;57106;51.446;-2.606;2023-04-08T04:35:43;102359.52;;;5.72;71.21
69351;BME280;57106;51.446;-2.606;2023-04-08T04:38:11;102362.26;;;5.71;70.79
69351;BME280;57106;51.446;-2.606;2023-04-08T04:40:34;102360.32;;;5.76;70.89
69351;BME280;57106;51.446;-2.606;2023-04-08T04:43:05;102360.65;;;6.02;70.31
69351;BME280;57106;51.446;-2.606;2023-04-08T04:45:26;102358.69;;;5.78;71.59
69351;BME280;57106;51.446;-2.606;2023-04-08T04:47:52;102361.16;;;5.81;71.42
69351;BME280;57106;51.446;-2.606;2023-04-08T04:50:18;102368.73;;;5.75;71.72
69351;BME280;57106;51.446;-2.606;2023-04-08T04:52:42;102370.16;;;5.81;71.13
69351;BME280;57106;51.446;-2.606;2023-04-08T04:55:09;102371.27;;;6.08;70.34
69351;BME280;57106;51.446;-2.606;2023-04-08T05:00:00;102375.26;;;6.10;70.41
69351;BME280;57106;51.446;-2.606;2023-04-08T05:02:26;102379.36;;;5.94;70.79
69351;BME280;57106;51.446;-2.606;2023-04-08T05:04:52;102378.67;;;5.89;70.55
69351;BME280;57106;51.446;-2.606;2023-04-08T05:07:17;102380.76;;;5.56;71.81
69351;BME280;57106;51.446;-2.606;2023-04-08T05:09:43;102384.08;;;5.63;71.49
69351;BME280;57106;51.446;-2.606;2023-04-08T05:12:09;102384.14;;;5.98;70.39
69351;BME280;57106;51.446;-2.606;2023-04-08T05:14:35;102387.32;;;5.92;69.90
69351;BME280;57106;51.446;-2.606;2023-04-08T05:17:00;102384.87;;;5.79;70.31
69351;BME280;57106;51.446;-2.606;2023-04-08T05:19:27;102387.56;;;5.77;69.93
69351;BME280;57106;51.446;-2.606;2023-04-08T05:21:54;102392.71;;;5.85;69.67
69351;BME280;57106;51.446;-2.606;2023-04-08T05:24:18;102395.03;;;5.86;69.42
69351;BME280;57106;51.446;-2.606;2023-04-08T05:26:43;102397.79;;;5.84;69.33
69351;BME280;57106;51.446;-2.606;2023-04-08T05:29:09;102400.77;;;5.82;68.31
69351;BME280;57106;51.446;-2.606;2023-04-08T05:31:40;102399.96;;;5.81;69.05
69351;BME280;57106;51.446;-2.606;2023-04-08T05:34:00;102406.88;;;5.69;69.32
69351;BME280;57106;51.446;-2.606;2023-04-08T05:36:30;102407.76;;;5.80;69.57
69351;BME280;57106;51.446;-2.606;2023-04-08T05:38:52;102407.35;;;5.49;71.04
69351;BME280;57106;51.446;-2.606;2023-04-08T05:41:17;102410.20;;;5.33;71.97
69351;BME280;57106;51.446;-2.606;2023-04-08T05:43:45;102414.63;;;5.71;70.44
69351;BME280;57106;51.446;-2.606;2023-04-08T05:46:09;102414.94;;;5.79;69.83
69351;BME280;57106;51.446;-2.606;2023-04-08T05:48:34;102417.51;;;5.74;69.80
69351;BME280;57106;51.446;-2.606;2023-04-08T05:51:00;102420.85;;;5.82;69.29
69351;BME280;57106;51.446;-2.606;2023-04-08T05:53:26;102419.52;;;5.56;70.28
69351;BME280;57106;51.446;-2.606;2023-04-08T05:55:51;102419.69;;;5.67;70.44
69351;BME280;57106;51.446;-2.606;2023-04-08T05:58:17;102418.97;;;5.98;69.69
69351;BME280;57106;51.446;-2.606;2023-04-08T06:00:43;102421.36;;;5.89;69.33
69351;BME280;57106;51.446;-2.606;2023-04-08T06:03:09;102422.50;;;5.93;70.02
69351;BME280;57106;51.446;-2.606;2023-04-08T06:05:34;102426.71;;;6.00;69.78
69351;BME280;57106;51.446;-2.606;2023-04-08T06:08:00;102423.31;;;6.16;69.51
69351;BME280;57106;51.446;-2.606;2023-04-08T06:10:31;102424.76;;;6.22;68.83
69351;BME280;57106;51.446;-2.606;2023-04-08T06:12:52;102426.24;;;6.39;68.38
69351;BME280;57106;51.446;-2.606;2023-04-08T06:15:17;102426.49;;;6.49;67.59
69351;BME280;57106;51.446;-2.606;2023-04-08T06:17:43;102427.53;;;6.61;67.96
69351;BME280;57106;51.446;-2.606;2023-04-08T06:20:10;102426.47;;;6.67;67.50
69351;BME280;57106;51.446;-2.606;2023-04-08T06:22:35;102431.69;;;6.38;68.58
69351;BME280;57106;51.446;-2.606;2023-04-08T06:25:00;102430.79;;;6.35;69.34
69351;BME280;57106;51.446;-2.606;2023-04-08T06:27:26;102433.34;;;6.37;69.01
69351;BME280;57106;51.446;-2.606;2023-04-08T06:29:52;102439.50;;;6.64;68.78
69351;BME280;57106;51.446;-2.606;2023-04-08T06:32:18;102440.45;;;6.59;68.70
69351;BME280;57106;51.446;-2.606;2023-04-08T06:34:44;102436.86;;;6.70;68.73
69351;BME280;57106;51.446;-2.606;2023-04-08T06:37:09;102438.66;;;6.97;67.23
69351;BME280;57106;51.446;-2.606;2023-04-08T06:39:35;102445.95;;;7.00;67.16
69351;BME280;57106;51.446;-2.606;2023-04-08T06:42:00;102444.13;;;7.10;66.66
69351;BME280;57106;51.446;-2.606;2023-04-08T06:44:34;102442.61;;;7.19;66.11
69351;BME280;57106;51.446;-2.606;2023-04-08T06:46:52;102444.26;;;7.34;65.78
69351;BME280;57106;51.446;-2.606;2023-04-08T06:49:17;102451.18;;;7.22;66.68
69351;BME280;57106;51.446;-2.606;2023-04-08T06:51:43;102450.19;;;7.32;65.87
69351;BME280;57106;51.446;-2.606;2023-04-08T06:54:08;102449.22;;;7.29;66.34
69351;BME280;57106;51.446;-2.606;2023-04-08T06:56:34;102450.08;;;7.46;65.84
69351;BME280;57106;51.446;-2.606;2023-04-08T06:59:00;102452.67;;;7.37;66.45
69351;BME280;57106;51.446;-2.606;2023-04-08T07:01:26;102454.29;;;7.25;66.79
69351;BME280;57106;51.446;-2.606;2023-04-08T07:03:52;102453.42;;;7.40;66.59
69351;BME280;57106;51.446;-2.606;2023-04-08T07:06:17;102459.81;;;7.68;65.64
69351;BME280;57106;51.446;-2.606;2023-04-08T07:08:43;102461.33;;;7.69;65.50
69351;BME280;57106;51.446;-2.606;2023-04-08T07:11:08;102459.16;;;7.56;65.31
69351;BME280;57106;51.446;-2.606;2023-04-08T07:13:39;102462.93;;;7.72;65.67
69351;BME280;57106;51.446;-2.606;2023-04-08T07:40:19;102482.37;;;8.26;64.32
69351;BME280;57106;51.446;-2.606;2023-04-08T07:42:42;102486.24;;;8.09;64.91
69351;BME280;57106;51.446;-2.606;2023-04-08T07:45:07;102490.32;;;8.42;64.10
69351;BME280;57106;51.446;-2.606;2023-04-08T07:47:32;102491.76;;;8.51;63.88
69351;BME280;57106;51.446;-2.606;2023-04-08T07:49:58;102495.86;;;8.71;63.49
69351;BME280;57106;51.446;-2.606;2023-04-08T07:52:23;102498.81;;;8.84;62.84
69351;BME280;57106;51.446;-2.606;2023-04-08T07:54:49;102502.60;;;8.77;63.02
69351;BME280;57106;51.446;-2.606;2023-04-08T07:57:14;102501.05;;;8.93;62.76
69351;BME280;57106;51.446;-2.606;2023-04-08T07:59:40;102501.91;;;9.17;62.72
69351;BME280;57106;51.446;-2.606;2023-04-08T08:02:05;102501.25;;;9.10;62.80
69351;BME280;57106;51.446;-2.606;2023-04-08T08:04:31;102502.58;;;9.12;62.42
69351;BME280;57106;51.446;-2.606;2023-04-08T08:06:57;102500.66;;;9.51;61.93
69351;BME280;57106;51.446;-2.606;2023-04-08T08:09:26;102501.59;;;9.48;61.82
69351;BME280;57106;51.446;-2.606;2023-04-08T08:11:48;102504.40;;;9.63;61.64
69351;BME280;57106;51.446;-2.606;2023-04-08T08:14:14;102504.61;;;9.94;60.98
69351;BME280;57106;51.446;-2.606;2023-04-08T08:16:39;102507.56;;;10.17;60.65
69351;BME280;57106;51.446;-2.606;2023-04-08T08:19:05;102510.61;;;10.36;59.93
69351;BME280;57106;51.446;-2.606;2023-04-08T08:21:30;102513.46;;;10.36;59.74
69351;BME280;57106;51.446;-2.606;2023-04-08T08:23:57;102514.34;;;10.40;59.77
69351;BME280;57106;51.446;-2.606;2023-04-08T08:26:22;102515.65;;;10.52;59.41
69351;BME280;57106;51.446;-2.606;2023-04-08T08:28:48;102514.06;;;10.46;59.47
69351;BME280;57106;51.446;-2.606;2023-04-08T08:31:13;102519.33;;;10.47;59.47
69351;BME280;57106;51.446;-2.606;2023-04-08T08:33:39;102517.51;;;10.49;59.60
69351;BME280;57106;51.446;-2.606;2023-04-08T08:36:04;102512.94;;;10.31;60.27
69351;BME280;57106;51.446;-2.606;2023-04-08T08:38:30;102512.06;;;10.24;60.30
69351;BME280;57106;51.446;-2.606;2023-04-08T08:40:58;102509.76;;;10.33;60.81
69351;BME280;57106;51.446;-2.606;2023-04-08T08:43:22;102511.93;;;10.75;60.08
69351;BME280;57106;51.446;-2.606;2023-04-08T08:48:12;102511.89;;;11.17;59.35
69351;BME280;57106;51.446;-2.606;2023-04-08T08:50:43;102515.49;;;11.37;58.34
69351;BME280;57106;51.446;-2.606;2023-04-08T08:53:03;102512.17;;;11.49;58.35
69351;BME280;57106;51.446;-2.606;2023-04-08T08:55:31;102511.48;;;11.73;57.74
69351;BME280;57106;51.446;-2.606;2023-04-08T08:57:54;102510.98;;;11.64;57.87
69351;BME280;57106;51.446;-2.606;2023-04-08T09:00:30;102515.68;;;11.86;57.92
69351;BME280;57106;51.446;-2.606;2023-04-08T09:02:47;102514.16;;;12.13;57.50
69351;BME280;57106;51.446;-2.606;2023-04-08T09:05:11;102518.38;;;12.12;57.24
69351;BME280;57106;51.446;-2.606;2023-04-08T09:07:37;102519.57;;;12.43;56.70
69351;BME280;57106;51.446;-2.606;2023-04-08T09:10:03;102520.27;;;12.39;56.61
69351;BME280;57106;51.446;-2.606;2023-04-08T09:12:28;102522.74;;;12.64;56.50
69351;BME280;57106;51.446;-2.606;2023-04-08T09:15:07;102522.77;;;12.83;55.98
69351;BME280;57106;51.446;-2.606;2023-04-08T09:17:31;102522.68;;;13.01;55.56
69351;BME280;57106;51.446;-2.606;2023-04-08T09:22:11;102520.69;;;13.29;54.80
69351;BME280;57106;51.446;-2.606;2023-04-08T09:31:55;102529.24;;;14.07;52.65
69351;BME280;57106;51.446;-2.606;2023-04-08T09:34:26;102527.26;;;14.31;52.19
69351;BME280;57106;51.446;-2.606;2023-04-08T09:41:36;102529.67;;;14.44;51.53
69351;BME280;57106;51.446;-2.606;2023-04-08T10:08:22;102525.06;;;15.09;49.18
69351;BME280;57106;51.446;-2.606;2023-04-08T10:10:42;102523.25;;;15.17;49.38
69351;BME280;57106;51.446;-2.606;2023-04-08T10:13:07;102517.84;;;15.27;49.09
69351;BME280;57106;51.446;-2.606;2023-04-08T10:15:33;102517.99;;;15.29;49.13
69351;BME280;57106;51.446;-2.606;2023-04-08T10:20:40;102513.16;;;15.24;48.91
69351;BME280;57106;51.446;-2.606;2023-04-08T10:22:48;102511.99;;;15.46;48.77
69351;BME280;57106;51.446;-2.606;2023-04-08T10:25:28;102510.60;;;14.97;47.84
69351;BME280;57106;51.446;-2.606;2023-04-08T10:27:40;102512.78;;;14.95;49.26
69351;BME280;57106;51.446;-2.606;2023-04-08T10:32:39;102509.42;;;15.17;48.05
69351;BME280;57106;51.446;-2.606;2023-04-08T10:34:55;102507.70;;;15.39;47.57
69351;BME280;57106;51.446;-2.606;2023-04-08T10:37:20;102507.59;;;15.34;47.54
69351;BME280;57106;51.446;-2.606;2023-04-08T10:39:48;102508.55;;;15.51;46.72
69351;BME280;57106;51.446;-2.606;2023-04-08T10:42:12;102507.53;;;15.64;45.82
69351;BME280;57106;51.446;-2.606;2023-04-08T10:44:43;102507.22;;;15.62;46.06
69351;BME280;57106;51.446;-2.606;2023-04-08T10:47:02;102506.00;;;15.70;45.23
69351;BME280;57106;51.446;-2.606;2023-04-08T10:49:33;102504.79;;;15.73;45.61
69351;BME280;57106;51.446;-2.606;2023-04-08T10:51:53;102503.38;;;15.64;45.00
69351;BME280;57106;51.446;-2.606;2023-04-08T10:54:19;102502.18;;;15.49;45.55
69351;BME280;57106;51.446;-2.606;2023-04-08T10:56:46;102502.53;;;15.54;45.95
69351;BME280;57106;51.446;-2.606;2023-04-08T10:59:10;102505.19;;;15.79;45.39
69351;BME280;57106;51.446;-2.606;2023-04-08T11:01:38;102502.06;;;15.93;45.35
69351;BME280;57106;51.446;-2.606;2023-04-08T11:04:00;102499.69;;;15.92;45.61
69351;BME280;57106;51.446;-2.606;2023-04-08T11:06:26;102498.59;;;15.76;46.04
69351;BME280;57106;51.446;-2.606;2023-04-08T11:08:57;102498.75;;;15.79;45.76
69351;BME280;57106;51.446;-2.606;2023-04-08T11:11:18;102493.17;;;15.52;46.27
69351;BME280;57106;51.446;-2.606;2023-04-08T11:13:44;102494.01;;;15.63;46.04
69351;BME280;57106;51.446;-2.606;2023-04-08T11:16:08;102487.72;;;15.82;45.46
69351;BME280;57106;51.446;-2.606;2023-04-08T11:18:34;102491.65;;;15.69;46.02
69351;BME280;57106;51.446;-2.606;2023-04-08T11:20:59;102488.35;;;15.49;45.51
69351;BME280;57106;51.446;-2.606;2023-04-08T11:23:24;102489.43;;;15.56;45.20
69351;BME280;57106;51.446;-2.606;2023-04-08T11:25:50;102491.56;;;15.77;46.37
69351;BME280;57106;51.446;-2.606;2023-04-08T11:28:16;102488.87;;;15.37;45.84
69351;BME280;57106;51.446;-2.606;2023-04-08T11:30:41;102492.44;;;14.96;47.18
69351;BME280;57106;51.446;-2.606;2023-04-08T11:33:06;102491.26;;;15.32;46.82
69351;BME280;57106;51.446;-2.606;2023-04-08T11:35:31;102491.92;;;15.58;45.68
69351;BME280;57106;51.446;-2.606;2023-04-08T11:37:57;102486.92;;;15.81;45.77
69351;BME280;57106;51.446;-2.606;2023-04-08T11:40:23;102489.16;;;15.92;45.53
69351;BME280;57106;51.446;-2.606;2023-04-08T11:42:48;102486.80;;;15.85;44.68
69351;BME280;57106;51.446;-2.606;2023-04-08T11:45:16;102489.99;;;16.08;44.86
69351;BME280;57106;51.446;-2.606;2023-04-08T11:47:39;102485.86;;;16.12;43.43
69351;BME280;57106;51.446;-2.606;2023-04-08T11:50:05;102482.26;;;16.29;43.76
69351;BME280;57106;51.446;-2.606;2023-04-08T11:52:40;102482.61;;;15.88;43.77
69351;BME280;57106;51.446;-2.606;2023-04-08T11:54:55;102482.63;;;16.11;43.02
69351;BME280;57106;51.446;-2.606;2023-04-08T11:57:35;102482.81;;;15.33;44.26
69351;BME280;57106;51.446;-2.606;2023-04-08T11:59:46;102479.96;;;15.86;43.48
69351;BME280;57106;51.446;-2.606;2023-04-08T12:02:13;102481.14;;;15.70;43.49
69351;BME280;57106;51.446;-2.606;2023-04-08T12:04:37;102482.27;;;16.17;42.65
69351;BME280;57106;51.446;-2.606;2023-04-08T12:07:02;102477.68;;;16.30;41.93
69351;BME280;57106;51.446;-2.606;2023-04-08T12:09:28;102480.07;;;16.07;41.63
69351;BME280;57106;51.446;-2.606;2023-04-08T12:11:55;102477.32;;;15.86;41.82
69351;BME280;57106;51.446;-2.606;2023-04-08T12:14:19;102478.77;;;15.83;42.12
69351;BME280;57106;51.446;-2.606;2023-04-08T12:16:44;102475.01;;;16.02;41.38
69351;BME280;57106;51.446;-2.606;2023-04-08T12:19:10;102472.98;;;16.25;40.04
69351;BME280;57106;51.446;-2.606;2023-04-08T12:21:35;102474.65;;;16.49;40.34
69351;BME280;57106;51.446;-2.606;2023-04-08T12:24:00;102473.65;;;16.69;40.12
69351;BME280;57106;51.446;-2.606;2023-04-08T12:26:27;102475.69;;;16.92;38.64
69351;BME280;57106;51.446;-2.606;2023-04-08T12:28:52;102470.32;;;16.60;39.37
69351;BME280;57106;51.446;-2.606;2023-04-08T12:31:17;102467.74;;;16.24;38.67
69351;BME280;57106;51.446;-2.606;2023-04-08T12:33:42;102464.19;;;16.27;39.18
69351;BME280;57106;51.446;-2.606;2023-04-08T12:36:07;102467.53;;;16.59;39.69
69351;BME280;57106;51.446;-2.606;2023-04-08T12:38:33;102466.66;;;16.58;39.99
69351;BME280;57106;51.446;-2.606;2023-04-08T12:40:59;102462.00;;;16.11;40.67
69351;BME280;57106;51.446;-2.606;2023-04-08T12:43:24;102461.31;;;15.99;40.16
69351;BME280;57106;51.446;-2.606;2023-04-08T12:45:50;102457.36;;;15.86;41.09
69351;BME280;57106;51.446;-2.606;2023-04-08T12:48:16;102457.18;;;15.70;41.41
69351;BME280;57106;51.446;-2.606;2023-04-08T12:50:40;102456.33;;;16.15;39.79
69351;BME280;57106;51.446;-2.606;2023-04-08T12:53:06;102452.32;;;15.56;40.39
69351;BME280;57106;51.446;-2.606;2023-04-08T12:55:32;102450.13;;;15.62;40.84
69351;BME280;57106;51.446;-2.606;2023-04-08T12:57:57;102446.42;;;15.66;40.92
69351;BME280;57106;51.446;-2.606;2023-04-08T13:00:33;102449.05;;;15.90;40.52
69351;BME280;57106;51.446;-2.606;2023-04-08T13:02:47;102446.27;;;15.95;40.26
69351;BME280;57106;51.446;-2.606;2023-04-08T13:05:14;102449.28;;;15.93;40.56
69351;BME280;57106;51.446;-2.606;2023-04-08T13:07:41;102450.66;;;16.01;40.84
69351;BME280;57106;51.446;-2.606;2023-04-08T13:10:05;102455.33;;;16.00;39.96
69351;BME280;57106;51.446;-2.606;2023-04-08T13:12:29;102453.17;;;15.89;38.84
69351;BME280;57106;51.446;-2.606;2023-04-08T13:14:55;102450.82;;;16.04;38.16
69351;BME280;57106;51.446;-2.606;2023-04-08T13:17:20;102447.78;;;15.99;38.72
69351;BME280;57106;51.446;-2.606;2023-04-08T13:19:46;102445.11;;;15.94;39.16
69351;BME280;57106;51.446;-2.606;2023-04-08T13:22:12;102441.87;;;16.12;38.39
69351;BME280;57106;51.446;-2.606;2023-04-08T13:24:39;102437.77;;;16.14;38.49
69351;BME280;57106;51.446;-2.606;2023-04-08T13:27:02;102436.28;;;16.48;40.30
69351;BME280;57106;51.446;-2.606;2023-04-08T13:29:27;102437.39;;;16.81;39.89
69351;BME280;57106;51.446;-2.606;2023-04-08T13:31:53;102433.76;;;16.78;38.16
69351;BME280;57106;51.446;-2.606;2023-04-08T13:34:19;102429.12;;;16.67;38.60
69351;BME280;57106;51.446;-2.606;2023-04-08T13:36:45;102435.73;;;16.44;39.77
69351;BME280;57106;51.446;-2.606;2023-04-08T13:39:10;102433.77;;;16.93;38.45
69351;BME280;57106;51.446;-2.606;2023-04-08T13:41:36;102437.76;;;16.94;37.60
69351;BME280;57106;51.446;-2.606;2023-04-08T13:44:05;102433.49;;;17.17;37.82
69351;BME280;57106;51.446;-2.606;2023-04-08T13:46:32;102433.64;;;17.27;37.75
69351;BME280;57106;51.446;-2.606;2023-04-08T13:48:52;102430.75;;;17.23;37.84